Latest Weather Observations for Mount Hotham

IDV60801

Issued at 4:32 am EDT Saturday 3 December 2016 (issued every 30 minutes, with the page automatically refreshed every 10 minutes)

About weather observations | Map of weather stations | Latest weather observations for VIC | Other Formats
Station Details ID: 083085 Name: MOUNT HOTHAM Lat: -36.98 Lon: 147.13 Height: 1849.0 m
Data from the previous 72 hours. | See also: Recent months at Mount Hotham
Date/Time
EDT
Temp
°C
App
Temp
°C
Dew
Point
°C
Rel
Hum
%
Delta-T
°C
Wind Press
QNH
hPa
Press
MSL
hPa
Rain since
9am
mm
Dir  Spd
km/h
Gust
km/h
Spd
kts
Gust
kts
03/04:30am 7.4 - - - - NNW 30 35 16 19 - - 0.0
03/04:00am 7.4 - - - - NNW 26 35 14 19 - - 0.0
03/03:30am 7.7 - - - - NNW 28 33 15 18 - - 0.0
03/03:00am 8.2 - - - - NNW 32 44 17 24 - - 0.0
03/02:30am 8.1 - - - - NNW 30 37 16 20 - - 0.0
03/02:00am 8.2 - - - - NNW 28 37 15 20 - - 0.0
03/01:30am 8.4 - - - - N 28 37 15 20 - - 0.0
03/01:00am 8.6 - - - - NNW 30 39 16 21 - - 0.0
03/12:30am 8.5 - - - - N 26 35 14 19 - - 0.0
03/12:00am 8.4 - - - - N 26 35 14 19 - - 0.0
 
Date/Time
EDT
Temp
°C
App
Temp
°C
Dew
Point
°C
Rel
Hum
%
Delta-T
°C
Wind Press
QNH
hPa
Press
MSL
hPa
Rain since
9am
mm
Dir  Spd
km/h
Gust
km/h
Spd
kts
Gust
kts
02/11:30pm 8.6 - - - - N 24 32 13 17 - - 0.0
02/11:00pm 9.1 - - - - N 22 33 12 18 - - 0.0
02/10:30pm 9.4 - - - - NNW 24 30 13 16 - - 0.0
02/10:00pm 9.8 - - - - NNW 26 33 14 18 - - 0.0
02/09:30pm 9.7 - - - - NNW 24 32 13 17 - - 0.0
02/09:00pm 10.1 - - - - NNW 30 44 16 24 - - 0.0
02/08:30pm 10.4 - - - - NNW 35 56 19 30 - - 0.0
02/08:22pm 10.5 - - - - N 37 56 20 30 - - 0.0
02/08:00pm 10.8 - - - - NNW 33 44 18 24 - - 0.0
02/07:32pm 11.4 - - - - NNW 32 50 17 27 - - 0.0
02/07:30pm 11.5 - - - - NNW 28 44 15 24 - - 0.0
02/07:00pm 12.3 - - - - NW 33 52 18 28 - - 0.0
02/06:30pm 12.8 - - - - NW 35 54 19 29 - - 0.0
02/06:28pm 12.9 - - - - NW 37 61 20 33 - - 0.0
02/06:26pm 12.8 - - - - NW 39 61 21 33 - - 0.0
02/06:00pm 13.5 - - - - NNW 35 56 19 30 - - 0.0
02/05:30pm 13.7 - - - - NNW 41 63 22 34 - - 0.0
02/05:00pm 13.8 - - - - NNW 39 59 21 32 - - 0.0
02/04:30pm 13.9 - - - - NW 41 61 22 33 - - 0.0
02/04:09pm 15.1 - - - - NW 33 59 18 32 - - 0.0
02/04:04pm 14.8 - - - - NW 39 59 21 32 - - 0.0
02/04:00pm 14.8 - - - - NW 43 59 23 32 - - 0.0
02/03:59pm 14.3 - - - - NW 44 59 24 32 - - 0.0
02/03:30pm 13.9 - - - - NNW 43 70 23 38 - - 0.0
02/03:25pm 14.3 - - - - NNW 35 59 19 32 - - 0.0
02/03:15pm 15.0 - - - - NW 35 56 19 30 - - 0.0
02/03:13pm 14.3 - - - - NW 37 56 20 30 - - 0.0
02/03:02pm 14.6 - - - - NNW 33 46 18 25 - - 0.0
02/03:00pm 14.3 - - - - NNW 33 46 18 25 - - 0.0
02/02:30pm 14.2 - - - - NNW 35 59 19 32 - - 0.0
02/02:07pm 13.5 - - - - NNW 33 63 18 34 - - 0.0
02/02:00pm 14.1 - - - - NW 33 48 18 26 - - 0.0
02/01:40pm 13.1 - - - - NNW 28 48 15 26 - - 0.0
02/01:30pm 12.9 - - - - NNW 28 44 15 24 - - 0.0
02/01:14pm 14.1 - - - - NW 33 56 18 30 - - 0.0
02/01:09pm 13.6 - - - - NNW 35 52 19 28 - - 0.0
02/01:03pm 13.7 - - - - NNW 28 48 15 26 - - 0.0
02/01:00pm 14.0 - - - - NNW 26 37 14 20 - - 0.0
02/12:30pm 13.9 - - - - NNW 30 46 16 25 - - 0.0
02/12:00pm 12.4 - - - - NW 33 57 18 31 - - 0.0
02/11:30am 13.0 - - - - NNW 28 54 15 29 - - 0.0
02/11:24am 12.8 - - - - NNW 28 54 15 29 - - 0.0
02/11:00am 11.8 - - - - NNW 26 43 14 23 - - 0.0
02/10:30am 11.2 - - - - NNW 33 48 18 26 - - 0.0
02/10:00am 11.2 - - - - NNW 33 48 18 26 - - 0.0
02/09:30am 11.0 - - - - NNW 32 46 17 25 - - 0.0
02/09:19am 11.2 - - - - NNW 32 50 17 27 - - 0.0
02/09:00am 10.9 - - - - N 33 46 18 25 - - 0.0
02/08:46am 10.3 - - - - N 32 54 17 29 - - 0.0
02/08:30am 10.3 - - - - N 33 43 18 23 - - 0.0
02/08:00am 10.1 - - - - N 33 46 18 25 - - 0.0
02/07:30am 9.3 - - - - N 32 50 17 27 - - 0.0
02/07:24am 9.2 - - - - N 32 50 17 27 - - 0.0
02/07:00am 8.8 - - - - N 33 43 18 23 - - 0.0
02/06:30am 8.1 - - - - N 35 46 19 25 - - 0.0
02/06:00am 8.1 - - - - N 37 48 20 26 - - 0.0
02/05:30am 8.4 - - - - N 39 48 21 26 - - 0.0
02/05:00am 8.6 - - - - N 37 52 20 28 - - 0.0
02/04:30am 8.6 - - - - N 39 48 21 26 - - 0.0
02/04:00am 8.6 - - - - N 39 57 21 31 - - 0.0
02/03:30am 8.6 - - - - N 37 50 20 27 - - 0.0
02/03:00am 8.6 - - - - N 35 48 19 26 - - 0.0
02/02:30am 8.7 - - - - N 35 50 19 27 - - 0.0
02/02:00am 8.5 - - - - N 32 41 17 22 - - 0.0
02/01:30am 8.7 - - - - N 32 41 17 22 - - 0.0
02/01:00am 8.7 - - - - N 30 43 16 23 - - 0.0
02/12:30am 8.7 - - - - N 30 37 16 20 - - 0.0
02/12:00am 8.9 - - - - N 28 37 15 20 - - 0.0
 
Date/Time
EDT
Temp
°C
App
Temp
°C
Dew
Point
°C
Rel
Hum
%
Delta-T
°C
Wind Press
QNH
hPa
Press
MSL
hPa
Rain since
9am
mm
Dir  Spd
km/h
Gust
km/h
Spd
kts
Gust
kts
01/11:30pm 9.0 - - - - N 28 37 15 20 - - 0.0
01/11:00pm 9.1 - - - - N 24 32 13 17 - - 0.0
01/10:30pm 9.2 - - - - N 26 33 14 18 - - 0.0
01/10:00pm 9.8 - - - - N 30 39 16 21 - - 0.0
01/09:45pm 10.1 - - - - N 33 52 18 28 - - 0.0
01/09:30pm 10.0 - - - - N 33 44 18 24 - - 0.0
01/09:00pm 10.1 - - - - N 32 41 17 22 - - 0.0
01/08:30pm 10.1 - - - - N 33 46 18 25 - - 0.0
01/08:00pm 10.2 - - - - N 32 43 17 23 - - 0.0
01/07:30pm 10.4 - - - - N 32 39 17 21 - - 0.0
01/07:00pm 11.3 - - - - N 24 37 13 20 - - 0.0
01/06:30pm 11.6 - - - - N 28 39 15 21 - - 0.0
01/06:00pm 12.1 - - - - N 28 39 15 21 - - 0.0
01/05:30pm 13.1 - - - - N 24 46 13 25 - - 0.0
01/05:24pm 12.9 - - - - N 28 46 15 25 - - 0.0
01/05:00pm 13.3 - - - - N 24 37 13 20 - - 0.0
01/04:30pm 13.0 - - - - N 22 33 12 18 - - 0.0
01/04:00pm 12.8 - - - - N 28 39 15 21 - - 0.0
01/03:31pm 12.2 - - - - NNE 28 48 15 26 - - 0.0
01/03:30pm 12.6 - - - - N 26 46 14 25 - - 0.0
01/03:00pm 12.6 - - - - N 28 44 15 24 - - 0.0
01/02:46pm 12.5 - - - - N 28 46 15 25 - - 0.0
01/02:30pm 12.8 - - - - N 28 39 15 21 - - 0.0
01/02:00pm 12.1 - - - - NNW 24 35 13 19 - - 0.0
01/01:30pm 12.1 - - - - NNW 26 37 14 20 - - 0.0
01/01:02pm 11.8 - - - - N 28 46 15 25 - - 0.0
01/01:00pm 11.9 - - - - N 26 37 14 20 - - 0.0
01/12:34pm 11.2 - - - - N 28 46 15 25 - - 0.0
01/12:30pm 10.6 - - - - N 30 46 16 25 - - 0.0
01/12:00pm 11.3 - - - - N 26 43 14 23 - - 0.0
01/11:30am 10.8 - - - - N 28 39 15 21 - - 0.0
01/11:00am 9.9 - - - - N 28 39 15 21 - - 0.0
01/10:30am 9.6 - - - - N 32 39 17 21 - - 0.0
01/10:00am 9.9 - - - - N 26 33 14 18 - - 0.0
01/09:30am 8.6 - - - - N 30 35 16 19 - - 0.0
01/09:00am 8.7 - - - - N 32 39 17 21 - - 3.0
01/08:30am 8.3 - - - - N 24 30 13 16 - - 3.0
01/08:00am 8.1 - - - - N 20 26 11 14 - - 3.0
01/07:30am 7.8 - - - - N 15 19 8 10 - - 3.0
01/07:00am 7.6 - - - - NW 11 15 6 8 - - 3.0
01/06:30am 7.6 - - - - WSW 9 11 5 6 - - 3.0
01/06:00am 7.5 - - - - SSW 9 11 5 6 - - 3.0
01/05:30am 7.5 - - - - S 6 6 3 3 - - 3.0
01/05:00am 6.8 - - - - S 9 17 5 9 - - 3.0
01/04:30am 5.3 - - - - S 17 22 9 12 - - 3.0
01/04:00am 5.2 - - - - S 24 30 13 16 - - 2.6
01/03:30am 5.8 - - - - W 17 20 9 11 - - 1.6
01/03:00am 6.2 - - - - WNW 11 15 6 8 - - 1.4
01/02:30am 6.6 - - - - NNW 13 15 7 8 - - 1.0
01/02:00am 6.7 - - - - N 19 26 10 14 - - 0.2
01/01:30am 7.6 - - - - NNW 15 17 8 9 - - 0.0
01/01:00am 8.3 - - - - NW 4 7 2 4 - - 0.0
01/12:30am 8.6 - - - - NW 7 9 4 5 - - 0.0
01/12:00am 9.5 - - - - NW 9 13 5 7 - - 0.0
 
Date/Time
EDT
Temp
°C
App
Temp
°C
Dew
Point
°C
Rel
Hum
%
Delta-T
°C
Wind Press
QNH
hPa
Press
MSL
hPa
Rain since
9am
mm
Dir  Spd
km/h
Gust
km/h
Spd
kts
Gust
kts
30/11:30pm 9.3 - - - - WNW 11 13 6 7 - - 0.0
30/11:00pm 9.3 - - - - WNW 13 17 7 9 - - 0.0
30/10:30pm 9.5 - - - - WNW 15 20 8 11 - - 0.0
30/10:00pm 9.3 - - - - W 19 24 10 13 - - 0.0
30/09:30pm 9.6 - - - - WNW 19 26 10 14 - - 0.0
30/09:00pm 10.0 - - - - NNW 26 33 14 18 - - 0.0
30/08:30pm 10.7 - - - - N 24 35 13 19 - - 0.0
30/08:00pm 11.6 - - - - NNW 22 33 12 18 - - 0.0
30/07:30pm 12.2 - - - - N 26 35 14 19 - - 0.0
30/07:00pm 13.0 - - - - N 24 33 13 18 - - 0.0
30/06:30pm 14.1 - - - - N 26 37 14 20 - - 0.0
30/06:00pm 13.7 - - - - N 28 41 15 22 - - 0.0
30/05:30pm 14.3 - - - - NNW 26 39 14 21 - - 0.0
30/05:00pm 14.4 - - - - N 24 39 13 21 - - 0.0
30/04:30pm 14.2 - - - - N 28 37 15 20 - - 0.0
30/04:00pm 14.4 - - - - N 30 41 16 22 - - 0.0
30/03:30pm 15.1 - - - - N 33 46 18 25 - - 0.0
30/03:00pm 13.5 - - - - N 35 48 19 26 - - 0.0
30/02:30pm 13.9 - - - - N 39 50 21 27 - - 0.0
30/02:16pm 13.9 - - - - N 37 56 20 30 - - 0.0
30/02:00pm 14.1 - - - - N 37 50 20 27 - - 0.0
30/01:40pm 14.1 - - - - N 39 57 21 31 - - 0.0
30/01:30pm 13.8 - - - - N 41 56 22 30 - - 0.0
30/01:00pm 13.7 - - - - N 37 59 20 32 - - 0.0
30/12:55pm 13.7 - - - - N 37 59 20 32 - - 0.0
30/12:30pm 13.7 - - - - N 33 48 18 26 - - 0.0
30/12:00pm 14.4 - - - - N 32 48 17 26 - - 0.0
30/11:30am 12.8 - - - - N 37 48 20 26 - - 0.0
30/11:00am 12.8 - - - - N 37 50 20 27 - - 0.0
30/10:30am 12.2 - - - - N 39 50 21 27 - - 0.0
30/10:00am 11.9 - - - - NNE 44 57 24 31 - - 0.0
30/09:34am 12.3 - - - - N 44 63 24 34 - - 0.0
30/09:30am 12.7 - - - - N 46 61 25 33 - - 0.0
30/09:05am 12.2 - - - - N 44 63 24 34 - - 0.0
30/09:00am 12.2 - - - - N 44 56 24 30 - - 0.0
30/08:44am 12.0 - - - - N 46 65 25 35 - - 0.0
30/08:30am 12.0 - - - - N 46 63 25 34 - - 0.0
30/08:03am 11.4 - - - - N 46 65 25 35 - - 0.0
30/08:00am 11.5 - - - - N 46 59 25 32 - - 0.0
30/07:30am 10.9 - - - - N 44 57 24 31 - - 0.0
30/07:00am 10.5 - - - - N 39 50 21 27 - - 0.0
30/06:30am 10.1 - - - - N 41 52 22 28 - - 0.0
30/06:00am 9.8 - - - - N 39 52 21 28 - - 0.0
30/05:30am 9.8 - - - - N 35 46 19 25 - - 0.0
30/05:00am 9.6 - - - - N 33 41 18 22 - - 0.0

Other Formats:

Comma delimited format used in spreadsheet applications
http://www.bom.gov.au/fwo/IDV60801/IDV60801.94906.axf

JavaScript Object Notation format (JSON) in row-major order
http://www.bom.gov.au/fwo/IDV60801/IDV60801.94906.json